Aérodrome :
LOGIN :

S'inscrire | Disclaimer

   EN    FR    IT 

 










Légende :    VFR   VFR Marginal   IFR   IFR Intensif   IFR Très Intensif
Visi : 
Plafond : 
>= 8 km
>= 3000ft
5 à 8 km
1000 à 3000 ft
1500m à 5 km
500 à 1000 ft
800 à 1500m
200 à 500 ft
< 800m
< 200 ft
Symboles :   Orages  Brouillard  Fortes neiges  Fortes précipitations  Vent > 20 kt
SIGMETs :   Divers  Orages  Givrage  Turbulence  Onde Orograph.  Cendres Volcan.






- Altitude de l'aérodrome : 179 ft


LIPI - Rivolto AFB Udine

DERNIER METAR :
  • 280455Z 03003KT 9999 FEW080 17/15 Q1014

METARs EXPIRÉS :
  • 280355Z 04003KT 9999 SCT090 17/15 Q1014 RMK SCT VIS MIN 9999 WIND THR06 06003KT WIND THR24 06004KT BLU
  • 280255Z 04003KT 9999 SCT090 16/14 Q1014 RMK BKN SCT150 VIS MIN 9999 WIND THR06 05003KT WIND THR24 07005KT BLU
  • 280155Z 04003KT 9999 SCT090 16/14 Q1014
  • 280055Z 02003KT 9999 SCT080 17/16 Q1015
  • 272355Z 03003KT 9999 SCT080 17/16 Q1015 RMK SCT VIS MIN 9999 WIND THR06 05003KT WIND THR24 06004KT BLU

Prévision TAF périmée.



MET'MAP, la Météo Aéronautique d'un coup d'oeil ! - Copyright ORBIFLY Décembre 2007 - Disclaimer

ORBIFLY MET'MAP TEAM :

Programmation & Développement : Alexandra Zaïnal
Sur une idée originale de : Baudouin d'Aumeries
Soutien technique & logistique : Manuel Goepfert
Assistance : Marc-Olivier Méhu




SOURCES & CREDITS :

   NOAA